createdAt,value
2023-03-15T00:00:37.231Z,505.00
2023-03-15T00:01:37.281Z,504.00
2023-03-15T00:02:37.409Z,506.00
2023-03-15T00:03:37.679Z,506.00
2023-03-15T00:04:37.372Z,506.00
2023-03-15T00:07:37.516Z,502.00
2023-03-15T00:08:37.644Z,509.00
2023-03-15T00:09:37.629Z,503.00
2023-03-15T00:10:37.673Z,506.00
2023-03-15T00:11:37.712Z,502.00
2023-03-15T00:12:37.764Z,504.00
2023-03-15T00:13:37.800Z,511.00
2023-03-15T00:14:37.833Z,506.00
2023-03-15T00:15:37.895Z,506.00
2023-03-15T00:16:37.889Z,506.00
2023-03-15T00:17:37.966Z,500.00
2023-03-15T00:18:37.989Z,508.00
2023-03-15T00:19:38.052Z,504.00
2023-03-15T00:20:38.077Z,508.00
2023-03-15T00:21:38.131Z,508.00
2023-03-15T00:22:38.166Z,506.00
2023-03-15T00:23:38.222Z,508.00
2023-03-15T00:24:38.268Z,500.00
2023-03-15T00:25:38.331Z,510.00
2023-03-15T00:26:38.348Z,504.00
2023-03-15T00:27:38.408Z,503.00
2023-03-15T00:28:38.401Z,506.00
2023-03-15T00:29:38.482Z,506.00
2023-03-15T00:30:38.489Z,500.00
2023-03-15T00:31:38.560Z,505.00
2023-03-15T00:33:38.645Z,501.00
2023-03-15T00:34:38.696Z,507.00
2023-03-15T00:35:38.784Z,505.00
2023-03-15T00:36:38.768Z,504.00
2023-03-15T00:37:38.827Z,505.00
2023-03-15T00:38:38.842Z,506.00
2023-03-15T00:39:38.883Z,507.00
2023-03-15T00:40:38.935Z,504.00
2023-03-15T00:41:38.981Z,505.00
2023-03-15T00:42:39.014Z,504.00
2023-03-15T00:45:39.131Z,509.00
2023-03-15T00:46:39.249Z,503.00
2023-03-15T00:48:39.318Z,506.00
2023-03-15T00:49:39.324Z,505.00
2023-03-15T00:50:39.385Z,506.00
2023-03-15T00:51:39.415Z,510.00
2023-03-15T00:52:39.551Z,508.00
2023-03-15T00:53:39.497Z,504.00
2023-03-15T00:54:39.566Z,508.00
2023-03-15T00:55:39.612Z,505.00
2023-03-15T00:56:39.675Z,508.00
2023-03-15T00:57:39.701Z,506.00
2023-03-15T00:59:39.797Z,507.00
2023-03-15T01:00:39.860Z,506.00
2023-03-15T01:01:39.922Z,505.00
2023-03-15T01:02:39.943Z,501.00
2023-03-15T01:03:39.972Z,505.00
2023-03-15T01:04:40.024Z,506.00
2023-03-15T01:05:40.091Z,502.00
2023-03-15T01:06:40.104Z,506.00
2023-03-15T01:07:40.172Z,505.00
2023-03-15T01:08:40.219Z,502.00
2023-03-15T01:09:40.251Z,505.00
2023-03-15T01:10:40.316Z,503.00
2023-03-15T01:11:40.346Z,508.00
2023-03-15T01:12:40.422Z,506.00
2023-03-15T01:13:40.429Z,505.00
2023-03-15T01:14:40.531Z,507.00
2023-03-15T01:15:40.560Z,503.00
2023-03-15T01:16:40.569Z,509.00
2023-03-15T01:17:40.619Z,503.00
2023-03-15T01:18:40.697Z,507.00
2023-03-15T01:19:40.769Z,504.00
2023-03-15T01:20:40.787Z,503.00
2023-03-15T01:21:40.839Z,508.00
2023-03-15T01:22:40.855Z,505.00
2023-03-15T01:23:40.904Z,507.00
2023-03-15T01:24:40.964Z,510.00
2023-03-15T01:25:40.985Z,509.00
2023-03-15T01:26:41.042Z,507.00
2023-03-15T01:27:41.112Z,504.00
2023-03-15T01:28:41.160Z,507.00
2023-03-15T01:29:41.170Z,506.00
2023-03-15T01:30:41.211Z,507.00
2023-03-15T01:31:41.304Z,504.00
2023-03-15T01:32:41.328Z,506.00
2023-03-15T01:33:41.379Z,503.00
2023-03-15T01:34:41.416Z,503.00
2023-03-15T01:35:41.481Z,512.00
2023-03-15T01:36:41.473Z,507.00
2023-03-15T01:37:41.507Z,506.00
2023-03-15T01:38:41.553Z,507.00
2023-03-15T01:39:41.613Z,505.00
2023-03-15T01:40:41.655Z,504.00
2023-03-15T01:41:41.760Z,509.00
2023-03-15T01:42:41.754Z,501.00
2023-03-15T01:43:41.775Z,505.00
2023-03-15T01:44:41.840Z,506.00
2023-03-15T01:45:41.905Z,506.00
2023-03-15T01:46:41.997Z,509.00
2023-03-15T01:47:42.017Z,510.00
2023-03-15T01:48:42.046Z,504.00
2023-03-15T01:49:42.085Z,503.00
2023-03-15T01:50:42.141Z,507.00
2023-03-15T01:51:42.136Z,507.00
2023-03-15T01:52:42.213Z,508.00
2023-03-15T01:53:42.242Z,504.00
2023-03-15T01:54:42.312Z,504.00
2023-03-15T01:55:42.348Z,506.00
2023-03-15T01:56:42.363Z,505.00
2023-03-15T01:57:42.436Z,503.00
2023-03-15T01:58:42.466Z,500.00
2023-03-15T01:59:42.528Z,504.00
2023-03-15T02:00:42.578Z,509.00
2023-03-15T02:01:42.598Z,507.00
2023-03-15T02:02:42.626Z,506.00
2023-03-15T02:03:42.672Z,508.00
2023-03-15T02:04:42.722Z,503.00
2023-03-15T02:05:42.764Z,510.00
2023-03-15T02:06:42.814Z,511.00
2023-03-15T02:07:42.830Z,502.00
2023-03-15T02:08:42.883Z,511.00
2023-03-15T02:09:42.934Z,504.00
2023-03-15T02:10:42.975Z,503.00
2023-03-15T02:11:43.028Z,509.00
2023-03-15T02:12:43.040Z,502.00
2023-03-15T02:13:43.168Z,500.00
2023-03-15T02:14:43.165Z,506.00
2023-03-15T02:15:43.203Z,503.00
2023-03-15T02:16:43.347Z,508.00
2023-03-15T02:17:43.325Z,507.00
2023-03-15T02:18:43.349Z,506.00
2023-03-15T02:19:43.411Z,508.00
2023-03-15T02:20:43.472Z,506.00
2023-03-15T02:21:43.521Z,500.00
2023-03-15T02:22:43.536Z,505.00
2023-03-15T02:23:43.589Z,507.00
2023-03-15T02:24:43.702Z,501.00
2023-03-15T02:25:43.696Z,505.00
2023-03-15T02:26:43.747Z,501.00
2023-03-15T02:27:43.784Z,506.00
2023-03-15T02:28:43.849Z,507.00
2023-03-15T02:29:43.897Z,508.00
2023-03-15T02:30:43.968Z,503.00
2023-03-15T02:31:44.126Z,505.00
2023-03-15T02:32:44.091Z,502.00
2023-03-15T02:33:44.733Z,504.00
2023-03-15T02:34:44.102Z,504.00
2023-03-15T02:35:44.197Z,503.00
2023-03-15T02:36:44.256Z,502.00
2023-03-15T02:37:44.289Z,500.00
2023-03-15T02:38:44.320Z,505.00
2023-03-15T02:39:44.349Z,500.00
2023-03-15T02:40:44.393Z,501.00
2023-03-15T02:41:44.484Z,508.00
2023-03-15T02:42:44.542Z,500.00
2023-03-15T02:43:44.550Z,508.00
2023-03-15T02:44:44.619Z,503.00
2023-03-15T02:45:44.673Z,507.00
2023-03-15T02:46:44.718Z,500.00
2023-03-15T02:47:44.748Z,504.00
2023-03-15T02:48:44.805Z,502.00
2023-03-15T02:49:44.839Z,504.00
2023-03-15T02:50:44.892Z,505.00
2023-03-15T02:51:44.914Z,504.00
2023-03-15T02:52:44.987Z,506.00
2023-03-15T02:53:45.041Z,502.00
2023-03-15T02:54:45.094Z,510.00
2023-03-15T02:56:45.167Z,503.00
2023-03-15T02:57:45.193Z,507.00
2023-03-15T02:58:45.245Z,504.00
2023-03-15T02:59:45.301Z,506.00
2023-03-15T03:00:45.344Z,503.00
2023-03-15T03:01:45.402Z,504.00
2023-03-15T03:02:45.480Z,507.00
2023-03-15T03:03:45.484Z,505.00
2023-03-15T03:04:45.533Z,500.00
2023-03-15T03:05:45.566Z,503.00
2023-03-15T03:06:45.639Z,507.00
2023-03-15T03:07:45.670Z,505.00
2023-03-15T03:08:45.741Z,507.00
2023-03-15T03:09:45.759Z,511.00
2023-03-15T03:10:45.818Z,510.00
2023-03-15T03:11:45.875Z,507.00
2023-03-15T03:12:45.918Z,502.00
2023-03-15T03:13:45.972Z,501.00
2023-03-15T03:14:46.007Z,505.00
2023-03-15T03:15:46.076Z,503.00
2023-03-15T03:16:46.128Z,506.00
2023-03-15T03:17:46.154Z,503.00
2023-03-15T03:18:46.198Z,500.00
2023-03-15T03:19:46.229Z,508.00
2023-03-15T03:20:46.320Z,501.00
2023-03-15T03:21:46.352Z,503.00
2023-03-15T03:22:46.392Z,510.00
2023-03-15T03:23:46.459Z,509.00
2023-03-15T03:24:46.514Z,515.00
2023-03-15T03:25:46.525Z,506.00
2023-03-15T03:26:46.584Z,509.00
2023-03-15T03:27:46.644Z,510.00
2023-03-15T03:28:46.685Z,506.00
2023-03-15T03:29:46.732Z,506.00
2023-03-15T03:30:46.871Z,507.00
2023-03-15T03:31:46.813Z,510.00
2023-03-15T03:32:46.915Z,504.00
2023-03-15T03:33:46.919Z,508.00
2023-03-15T03:34:46.956Z,511.00
2023-03-15T03:35:47.057Z,508.00
2023-03-15T03:36:47.062Z,508.00
2023-03-15T03:37:47.078Z,512.00
2023-03-15T03:38:47.140Z,511.00
2023-03-15T03:39:47.224Z,505.00
2023-03-15T03:40:47.266Z,510.00
2023-03-15T03:41:47.283Z,506.00
2023-03-15T03:46:47.518Z,509.00
2023-03-15T03:47:47.568Z,502.00
2023-03-15T03:48:47.608Z,505.00
2023-03-15T03:49:47.658Z,507.00
2023-03-15T03:50:47.667Z,506.00
2023-03-15T03:51:47.728Z,507.00
2023-03-15T03:52:47.760Z,507.00
2023-03-15T03:53:47.801Z,504.00
2023-03-15T03:54:47.881Z,501.00
2023-03-15T03:55:47.911Z,503.00
2023-03-15T03:56:47.948Z,508.00
2023-03-15T03:57:48.015Z,503.00
2023-03-15T03:58:48.035Z,508.00
2023-03-15T03:59:48.069Z,512.00
2023-03-15T04:00:48.122Z,506.00
2023-03-15T04:01:48.144Z,506.00
2023-03-15T04:02:48.243Z,507.00
2023-03-15T04:03:48.220Z,509.00
2023-03-15T04:04:48.400Z,507.00
2023-03-15T04:05:48.317Z,510.00
2023-03-15T04:06:48.380Z,513.00
2023-03-15T04:07:48.373Z,505.00
2023-03-15T04:08:48.411Z,514.00
2023-03-15T04:09:48.442Z,505.00
2023-03-15T04:10:48.524Z,506.00
2023-03-15T04:11:48.548Z,504.00
2023-03-15T04:12:48.559Z,500.00
2023-03-15T04:13:48.581Z,503.00
2023-03-15T04:14:48.627Z,508.00
2023-03-15T04:15:48.667Z,506.00
2023-03-15T04:16:48.696Z,505.00
2023-03-15T04:17:48.700Z,500.00
2023-03-15T04:18:48.732Z,504.00
2023-03-15T04:19:48.739Z,503.00
2023-03-15T04:20:48.753Z,502.00
2023-03-15T04:21:48.788Z,504.00
2023-03-15T04:22:48.792Z,501.00
2023-03-15T04:23:48.825Z,504.00
2023-03-15T04:24:48.846Z,502.00
2023-03-15T04:25:48.826Z,505.00
2023-03-15T04:26:48.863Z,506.00
2023-03-15T04:27:48.888Z,501.00
2023-03-15T04:28:48.852Z,500.00
2023-03-15T04:29:48.908Z,508.00
2023-03-15T04:30:48.893Z,500.00
2023-03-15T04:31:48.884Z,507.00
2023-03-15T04:32:48.946Z,503.00
2023-03-15T04:33:48.891Z,507.00
2023-03-15T04:34:48.905Z,504.00
2023-03-15T04:35:48.916Z,511.00
2023-03-15T04:36:48.878Z,504.00
2023-03-15T04:38:48.855Z,510.00
2023-03-15T04:39:48.872Z,504.00
2023-03-15T04:41:48.854Z,503.00
2023-03-15T04:42:48.854Z,509.00
2023-03-15T04:43:48.862Z,501.00
2023-03-15T04:44:48.866Z,507.00
2023-03-15T04:45:48.820Z,503.00
2023-03-15T04:46:48.876Z,501.00
2023-03-15T04:47:48.834Z,500.00
2023-03-15T04:51:48.844Z,503.00
2023-03-15T04:52:48.809Z,501.00
2023-03-15T04:53:48.832Z,502.00
2023-03-15T04:54:48.824Z,500.00
2023-03-15T04:55:48.809Z,505.00
2023-03-15T04:56:48.824Z,506.00
2023-03-15T04:57:48.822Z,501.00
2023-03-15T04:58:48.821Z,507.00
2023-03-15T04:59:48.861Z,503.00
2023-03-15T05:00:48.936Z,504.00
2023-03-15T05:01:48.829Z,506.00
2023-03-15T05:02:48.834Z,504.00
2023-03-15T05:03:48.806Z,507.00
2023-03-15T05:04:48.795Z,502.00
2023-03-15T05:05:48.813Z,506.00
2023-03-15T05:06:48.822Z,507.00
2023-03-15T05:07:48.817Z,509.00
2023-03-15T05:08:48.838Z,511.00
2023-03-15T05:09:48.811Z,501.00
2023-03-15T05:10:48.820Z,513.00
2023-03-15T05:11:48.808Z,511.00
2023-03-15T05:13:48.804Z,511.00
2023-03-15T05:14:48.842Z,505.00
2023-03-15T05:15:48.811Z,507.00
2023-03-15T05:16:48.830Z,503.00
2023-03-15T05:17:48.810Z,503.00
2023-03-15T05:18:48.803Z,502.00
2023-03-15T05:19:48.802Z,510.00
2023-03-15T05:20:48.824Z,500.00
2023-03-15T05:21:48.793Z,507.00
2023-03-15T05:22:48.821Z,511.00
2023-03-15T05:23:48.836Z,508.00
2023-03-15T05:24:48.791Z,506.00
2023-03-15T05:25:48.783Z,506.00
2023-03-15T05:26:48.795Z,508.00
2023-03-15T05:27:48.790Z,505.00
2023-03-15T05:28:48.796Z,509.00
2023-03-15T05:29:48.764Z,507.00
2023-03-15T05:30:48.769Z,509.00
2023-03-15T05:31:48.834Z,509.00
2023-03-15T05:32:48.872Z,503.00
2023-03-15T05:33:48.785Z,505.00
2023-03-15T05:34:48.843Z,505.00
2023-03-15T05:35:48.819Z,502.00
2023-03-15T05:36:48.757Z,506.00
2023-03-15T05:37:48.763Z,500.00
2023-03-15T05:38:48.770Z,504.00
2023-03-15T05:39:48.771Z,502.00
2023-03-15T05:41:48.869Z,510.00
2023-03-15T05:42:48.759Z,509.00
2023-03-15T05:43:48.758Z,505.00
2023-03-15T05:44:48.749Z,499.00
2023-03-15T05:45:48.855Z,511.00
2023-03-15T05:46:48.721Z,508.00
2023-03-15T05:47:48.735Z,510.00
2023-03-15T05:48:48.752Z,508.00
2023-03-15T05:49:48.726Z,513.00
2023-03-15T05:50:48.725Z,507.00
2023-03-15T05:51:48.756Z,505.00
2023-03-15T05:52:48.730Z,507.00
2023-03-15T05:53:48.720Z,507.00
2023-03-15T05:54:48.779Z,513.00
2023-03-15T05:55:48.732Z,509.00
2023-03-15T05:56:48.765Z,504.00
2023-03-15T05:57:48.774Z,508.00
2023-03-15T05:58:48.733Z,504.00
2023-03-15T05:59:48.773Z,510.00
2023-03-15T06:00:55.771Z,506.00
2023-03-15T06:02:48.764Z,507.00
2023-03-15T06:03:48.822Z,508.00
2023-03-15T06:04:48.723Z,509.00
2023-03-15T06:05:48.799Z,515.00
2023-03-15T06:06:48.732Z,505.00
2023-03-15T06:07:48.720Z,506.00
2023-03-15T06:08:48.761Z,506.00
2023-03-15T06:09:48.755Z,508.00
2023-03-15T06:10:48.706Z,500.00
2023-03-15T06:11:48.710Z,508.00
2023-03-15T06:12:48.772Z,508.00
2023-03-15T06:13:48.676Z,502.00
2023-03-15T06:14:48.688Z,508.00
2023-03-15T06:15:48.677Z,508.00
2023-03-15T06:16:48.685Z,501.00
2023-03-15T06:17:48.623Z,510.00
2023-03-15T06:18:48.657Z,507.00
2023-03-15T06:19:48.649Z,509.00
2023-03-15T06:20:48.630Z,504.00
2023-03-15T06:21:48.643Z,506.00
2023-03-15T06:22:48.600Z,503.00
2023-03-15T06:23:48.592Z,512.00
2023-03-15T06:24:48.593Z,508.00
2023-03-15T06:25:48.576Z,513.00
2023-03-15T06:26:48.603Z,510.00
2023-03-15T06:27:48.588Z,505.00
2023-03-15T06:28:48.587Z,509.00
2023-03-15T06:29:48.530Z,509.00
2023-03-15T06:30:48.639Z,512.00
2023-03-15T06:31:48.561Z,508.00
2023-03-15T06:32:48.557Z,491.00
2023-03-15T06:33:48.552Z,500.00
2023-03-15T06:34:48.542Z,485.00
2023-03-15T06:35:48.590Z,484.00
2023-03-15T06:36:48.524Z,469.00
2023-03-15T06:37:48.532Z,480.00
2023-03-15T06:38:48.544Z,558.00
2023-03-15T06:39:48.545Z,526.00
2023-03-15T06:40:48.814Z,491.00
2023-03-15T06:41:48.491Z,502.00
2023-03-15T06:42:48.474Z,525.00
2023-03-15T06:43:48.527Z,500.00
2023-03-15T06:44:50.137Z,502.00
2023-03-15T06:45:48.843Z,516.00
2023-03-15T06:46:55.754Z,497.00
2023-03-15T06:47:48.727Z,498.00
2023-03-15T06:48:48.705Z,504.00
2023-03-15T06:49:48.774Z,529.00
2023-03-15T06:50:48.786Z,570.00
2023-03-15T06:51:48.693Z,662.00
2023-03-15T06:52:48.677Z,730.00
2023-03-15T06:53:48.684Z,747.00
2023-03-15T06:54:48.703Z,693.00
2023-03-15T06:55:48.698Z,823.00
2023-03-15T06:56:48.674Z,867.00
2023-03-15T06:57:48.711Z,944.00
2023-03-15T06:58:48.664Z,965.00
2023-03-15T06:59:48.664Z,977.00
2023-03-15T07:00:48.634Z,962.00
2023-03-15T07:01:48.914Z,982.00
2023-03-15T07:02:48.805Z,1018.00
2023-03-15T07:03:48.616Z,1017.00
2023-03-15T07:04:48.612Z,1001.00
2023-03-15T07:05:48.614Z,1108.00
2023-03-15T07:06:48.798Z,1088.00
2023-03-15T07:07:48.621Z,1107.00
2023-03-15T07:08:48.591Z,1122.00
2023-03-15T07:09:48.589Z,1191.00
2023-03-15T07:10:48.564Z,1249.00
2023-03-15T07:11:48.610Z,1198.00
2023-03-15T07:12:48.622Z,1261.00
2023-03-15T07:13:48.572Z,950.00
2023-03-15T07:14:48.559Z,564.00
2023-03-15T07:15:48.704Z,500.00
2023-03-15T07:16:48.853Z,490.00
2023-03-15T07:17:48.562Z,500.00
2023-03-15T07:18:48.531Z,552.00
2023-03-15T07:19:56.198Z,548.00
2023-03-15T07:20:49.539Z,550.00
2023-03-15T07:21:48.520Z,564.00
2023-03-15T07:22:48.535Z,591.00
2023-03-15T07:23:48.538Z,650.00
2023-03-15T07:24:48.511Z,800.00
2023-03-15T07:25:54.919Z,810.00
2023-03-15T07:26:49.474Z,811.00
2023-03-15T07:27:48.527Z,815.00
2023-03-15T07:28:48.463Z,812.00
2023-03-15T07:29:48.480Z,793.00
2023-03-15T07:30:48.443Z,871.00
2023-03-15T07:31:48.869Z,733.00
2023-03-15T07:32:48.586Z,612.00
2023-03-15T07:33:48.430Z,594.00
2023-03-15T07:34:48.476Z,627.00
2023-03-15T07:35:48.420Z,735.00
2023-03-15T07:36:48.812Z,674.00
2023-03-15T07:37:48.422Z,664.00
2023-03-15T07:38:48.392Z,689.00
2023-03-15T07:39:48.413Z,679.00
2023-03-15T07:40:48.396Z,557.00
2023-03-15T07:41:48.415Z,620.00
2023-03-15T07:42:48.380Z,702.00
2023-03-15T07:43:48.421Z,873.00
2023-03-15T07:44:48.537Z,962.00
2023-03-15T07:45:48.544Z,1042.00
2023-03-15T07:46:48.842Z,1065.00
2023-03-15T07:47:48.499Z,1111.00
2023-03-15T07:48:48.557Z,1141.00
2023-03-15T07:49:48.604Z,1221.00
2023-03-15T07:50:48.670Z,1222.00
2023-03-15T07:51:48.846Z,1205.00
2023-03-15T07:52:48.837Z,1255.00
2023-03-15T07:53:48.754Z,1238.00
2023-03-15T07:54:48.787Z,1263.00
2023-03-15T07:55:48.864Z,1259.00
2023-03-15T07:56:48.862Z,1306.00
2023-03-15T07:57:50.363Z,1327.00
2023-03-15T07:58:48.908Z,1337.00
2023-03-15T07:59:48.998Z,1400.00
2023-03-15T08:00:48.819Z,1432.00
2023-03-15T08:01:48.849Z,1487.00
2023-03-15T08:02:48.857Z,1482.00
2023-03-15T08:03:48.783Z,1514.00
2023-03-15T08:04:48.783Z,1536.00
2023-03-15T08:05:48.776Z,1546.00
2023-03-15T08:06:48.789Z,1552.00
2023-03-15T08:07:48.800Z,1500.00
2023-03-15T08:08:48.792Z,1469.00
2023-03-15T08:09:48.777Z,1351.00
2023-03-15T08:10:48.737Z,1401.00
2023-03-15T08:11:48.731Z,1364.00
2023-03-15T08:12:48.874Z,1365.00
2023-03-15T08:13:48.728Z,1329.00
2023-03-15T08:14:48.697Z,1275.00
2023-03-15T08:15:48.715Z,1098.00
2023-03-15T08:16:48.715Z,1036.00
2023-03-15T08:17:48.705Z,1249.00
2023-03-15T08:18:48.728Z,1239.00
2023-03-15T08:19:48.673Z,1168.00
2023-03-15T08:20:48.688Z,1158.00
2023-03-15T08:21:48.699Z,1163.00
2023-03-15T08:22:48.861Z,1146.00
2023-03-15T08:23:48.702Z,1281.00
2023-03-15T08:24:48.720Z,1321.00
2023-03-15T08:25:48.770Z,1283.00
2023-03-15T08:26:48.616Z,1296.00
2023-03-15T08:27:48.631Z,1290.00
2023-03-15T08:28:48.628Z,1285.00
2023-03-15T08:29:48.689Z,1250.00
2023-03-15T08:30:48.650Z,1220.00
2023-03-15T08:31:48.668Z,742.00
2023-03-15T08:32:48.885Z,785.00
2023-03-15T08:33:48.605Z,855.00
2023-03-15T08:34:48.574Z,660.00
2023-03-15T08:35:48.617Z,755.00
2023-03-15T08:36:48.667Z,831.00
2023-03-15T08:37:48.760Z,853.00
2023-03-15T08:38:48.692Z,596.00
2023-03-15T08:39:48.714Z,500.00
2023-03-15T08:40:48.762Z,549.00
2023-03-15T08:41:48.769Z,591.00
2023-03-15T08:42:48.866Z,614.00
2023-03-15T08:43:48.759Z,614.00
2023-03-15T08:44:48.771Z,688.00
2023-03-15T08:46:00.054Z,675.00
2023-03-15T08:46:49.895Z,679.00
2023-03-15T08:47:48.874Z,690.00
2023-03-15T08:48:48.816Z,745.00
2023-03-15T08:49:48.812Z,818.00
2023-03-15T08:50:48.797Z,880.00
2023-03-15T08:51:48.802Z,957.00
2023-03-15T08:52:48.897Z,962.00
2023-03-15T08:53:48.810Z,1015.00
2023-03-15T08:54:48.780Z,1012.00
2023-03-15T08:55:48.770Z,996.00
2023-03-15T08:56:48.755Z,1035.00
2023-03-15T08:57:48.830Z,1059.00
2023-03-15T08:58:48.761Z,1067.00
2023-03-15T08:59:48.813Z,1079.00
2023-03-15T09:00:48.797Z,1074.00
2023-03-15T09:01:48.904Z,1111.00
2023-03-15T09:02:48.932Z,1098.00
2023-03-15T09:03:48.931Z,1123.00
2023-03-15T09:04:48.990Z,1114.00
2023-03-15T09:05:49.048Z,1138.00
2023-03-15T09:06:49.131Z,1132.00
2023-03-15T09:07:49.167Z,1151.00
2023-03-15T09:08:49.215Z,1158.00
2023-03-15T09:09:49.260Z,1196.00
2023-03-15T09:10:49.295Z,1197.00
2023-03-15T09:11:49.379Z,1213.00
2023-03-15T09:12:49.386Z,1245.00
2023-03-15T09:13:49.423Z,1175.00
2023-03-15T09:14:49.465Z,1200.00
2023-03-15T09:15:49.511Z,1254.00
2023-03-15T09:16:49.575Z,1223.00
2023-03-15T09:17:49.925Z,1266.00
2023-03-15T09:18:49.602Z,1332.00
2023-03-15T09:19:49.615Z,1301.00
2023-03-15T09:20:49.631Z,1275.00
2023-03-15T09:21:49.663Z,1297.00
2023-03-15T09:22:49.739Z,1258.00
2023-03-15T09:23:49.757Z,1299.00
2023-03-15T09:24:50.458Z,1235.00
2023-03-15T09:25:49.877Z,1265.00
2023-03-15T09:26:49.824Z,1205.00
2023-03-15T09:27:49.910Z,1258.00
2023-03-15T09:28:50.917Z,1141.00
2023-03-15T09:29:49.907Z,1074.00
2023-03-15T09:30:50.468Z,1070.00
2023-03-15T09:31:49.804Z,645.00
2023-03-15T09:32:49.919Z,677.00
2023-03-15T09:33:49.907Z,729.00
2023-03-15T09:34:49.811Z,788.00
2023-03-15T09:35:49.833Z,779.00
2023-03-15T09:36:49.834Z,804.00
2023-03-15T09:37:49.841Z,798.00
2023-03-15T09:38:49.857Z,680.00
2023-03-15T09:39:49.955Z,704.00
2023-03-15T09:40:49.957Z,757.00
2023-03-15T09:41:50.019Z,631.00
2023-03-15T09:42:50.006Z,632.00
2023-03-15T09:43:50.417Z,608.00
2023-03-15T09:44:50.034Z,579.00
2023-03-15T09:45:50.036Z,651.00
2023-03-15T09:46:50.117Z,647.00
2023-03-15T09:47:50.118Z,717.00
2023-03-15T09:48:50.118Z,736.00
2023-03-15T09:49:50.100Z,653.00
2023-03-15T09:50:50.141Z,597.00
2023-03-15T09:51:50.087Z,625.00
2023-03-15T09:52:50.148Z,608.00
2023-03-15T09:53:50.420Z,604.00
2023-03-15T09:54:50.125Z,619.00
2023-03-15T09:55:50.123Z,632.00
2023-03-15T09:56:50.183Z,620.00
2023-03-15T09:57:50.138Z,572.00
2023-03-15T09:58:50.435Z,600.00
2023-03-15T09:59:50.208Z,649.00
2023-03-15T10:00:50.254Z,651.00
2023-03-15T10:01:50.203Z,649.00
2023-03-15T10:02:50.268Z,755.00
2023-03-15T10:03:50.458Z,724.00
2023-03-15T10:04:50.255Z,597.00
2023-03-15T10:05:50.265Z,622.00
2023-03-15T10:06:50.278Z,621.00
2023-03-15T10:07:50.365Z,566.00
2023-03-15T10:08:50.451Z,499.00
2023-03-15T10:09:50.406Z,520.00
2023-03-15T10:10:50.405Z,514.00
2023-03-15T10:11:50.367Z,467.00
2023-03-15T10:12:50.417Z,434.00
2023-03-15T10:13:50.392Z,441.00
2023-03-15T10:15:50.435Z,615.00
2023-03-15T10:16:50.414Z,625.00
2023-03-15T10:17:50.370Z,611.00
2023-03-15T10:18:50.370Z,715.00
2023-03-15T10:19:50.383Z,761.00
2023-03-15T10:20:50.381Z,799.00
2023-03-15T10:21:50.358Z,872.00
2023-03-15T10:22:50.359Z,868.00
2023-03-15T10:23:50.468Z,880.00
2023-03-15T10:24:50.395Z,1018.00
2023-03-15T10:25:50.386Z,890.00
2023-03-15T10:26:50.405Z,837.00
2023-03-15T10:27:50.377Z,861.00
2023-03-15T10:28:50.405Z,722.00
2023-03-15T10:29:50.396Z,693.00
2023-03-15T10:30:50.388Z,756.00
2023-03-15T10:31:50.451Z,688.00
2023-03-15T10:32:50.406Z,967.00
2023-03-15T10:33:50.370Z,867.00
2023-03-15T10:34:50.365Z,881.00
2023-03-15T10:35:52.488Z,494.00
2023-03-15T10:36:51.400Z,493.00
2023-03-15T10:37:50.389Z,400.00
2023-03-15T10:38:50.399Z,400.00
2023-03-15T10:39:50.399Z,400.00
2023-03-15T10:40:50.324Z,400.00
2023-03-15T10:41:50.383Z,400.00
2023-03-15T10:42:50.398Z,400.00
2023-03-15T10:47:59.601Z,400.00
2023-03-15T10:48:51.324Z,400.00
2023-03-15T10:49:50.351Z,400.00
2023-03-15T10:51:50.292Z,400.00
2023-03-15T10:52:51.489Z,400.00
2023-03-15T10:53:50.455Z,524.00
2023-03-15T10:54:55.404Z,656.00
2023-03-15T10:55:51.285Z,659.00
2023-03-15T10:56:50.293Z,689.00
2023-03-15T10:57:50.278Z,834.00
2023-03-15T10:59:09.146Z,1101.00
2023-03-15T10:59:51.268Z,666.00
2023-03-15T11:00:50.327Z,758.00
2023-03-15T11:01:50.384Z,880.00
2023-03-15T11:02:50.326Z,1079.00
2023-03-15T11:03:50.436Z,1209.00
2023-03-15T11:04:50.240Z,1362.00
2023-03-15T11:05:50.241Z,1550.00
2023-03-15T11:06:50.194Z,1643.00
2023-03-15T11:07:50.209Z,1635.00
2023-03-15T11:08:50.190Z,1814.00
2023-03-15T11:09:50.183Z,1708.00
2023-03-15T11:10:50.174Z,1475.00
2023-03-15T11:11:50.154Z,1401.00
2023-03-15T11:12:50.166Z,1365.00
2023-03-15T11:13:50.245Z,1519.00
2023-03-15T11:14:50.259Z,1597.00
2023-03-15T11:15:50.402Z,1656.00
2023-03-15T11:16:50.429Z,1623.00
2023-03-15T11:17:50.442Z,1560.00
2023-03-15T11:18:50.433Z,1687.00
2023-03-15T11:19:50.498Z,1734.00
2023-03-15T11:20:50.532Z,1833.00
2023-03-15T11:21:50.559Z,1892.00
2023-03-15T11:22:50.588Z,2027.00
2023-03-15T11:23:50.626Z,1980.00
2023-03-15T11:24:51.005Z,2067.00
2023-03-15T11:25:50.669Z,2147.00
2023-03-15T11:26:50.678Z,2103.00
2023-03-15T11:28:50.649Z,2110.00
2023-03-15T11:29:50.689Z,2348.00
2023-03-15T11:30:50.672Z,2349.00
2023-03-15T11:31:50.715Z,2336.00
2023-03-15T11:32:50.806Z,2313.00
2023-03-15T11:34:50.964Z,2531.00
2023-03-15T11:35:50.811Z,2420.00
2023-03-15T11:36:58.709Z,2453.00
2023-03-15T11:37:51.836Z,2406.00
2023-03-15T11:38:51.469Z,2374.00
2023-03-15T11:39:53.732Z,2302.00
2023-03-15T11:40:51.841Z,2442.00
2023-03-15T11:41:50.810Z,2467.00
2023-03-15T11:42:50.824Z,2484.00
2023-03-15T11:43:50.782Z,2486.00
2023-03-15T11:44:50.808Z,2505.00
2023-03-15T11:45:50.813Z,2452.00
2023-03-15T11:46:50.865Z,2542.00
2023-03-15T11:47:50.895Z,2462.00
2023-03-15T11:48:50.954Z,2402.00
2023-03-15T11:49:51.058Z,2506.00
2023-03-15T11:50:51.081Z,2501.00
2023-03-15T11:51:51.169Z,2385.00
2023-03-15T11:52:51.206Z,2390.00
2023-03-15T11:53:51.291Z,2398.00
2023-03-15T11:54:51.309Z,2442.00
2023-03-15T11:55:51.357Z,2412.00
2023-03-15T11:56:51.441Z,2464.00
2023-03-15T11:57:51.505Z,2424.00
2023-03-15T11:58:51.585Z,2451.00
2023-03-15T11:59:51.651Z,2417.00
2023-03-15T12:00:51.714Z,2279.00
2023-03-15T12:01:51.966Z,2335.00
2023-03-15T12:02:51.821Z,2342.00
2023-03-15T12:03:51.871Z,2260.00
2023-03-15T12:04:51.926Z,2251.00
2023-03-15T12:05:52.047Z,2223.00
2023-03-15T12:06:52.051Z,2252.00
2023-03-15T12:07:52.131Z,2285.00
2023-03-15T12:08:52.217Z,2258.00
2023-03-15T12:09:52.306Z,2258.00
2023-03-15T12:10:52.279Z,2367.00
2023-03-15T12:11:52.355Z,2361.00
2023-03-15T12:12:52.425Z,2365.00
2023-03-15T12:13:52.483Z,2443.00
2023-03-15T12:14:52.557Z,2426.00
2023-03-15T12:15:52.728Z,2459.00
2023-03-15T12:16:52.670Z,2483.00
2023-03-15T12:17:52.742Z,2458.00
2023-03-15T12:18:52.837Z,2446.00
2023-03-15T12:19:52.890Z,2438.00
2023-03-15T12:20:52.920Z,2327.00
2023-03-15T12:21:53.044Z,2380.00
2023-03-15T12:22:53.065Z,2403.00
2023-03-15T12:23:53.084Z,2330.00
2023-03-15T12:24:53.457Z,2300.00
2023-03-15T12:25:55.270Z,2106.00
2023-03-15T12:26:53.306Z,2162.00
2023-03-15T12:27:53.309Z,2155.00
2023-03-15T12:28:53.361Z,2171.00
2023-03-15T12:29:53.545Z,2167.00
2023-03-15T12:30:53.397Z,2221.00
2023-03-15T12:31:53.395Z,2230.00
2023-03-15T12:32:53.440Z,2269.00
2023-03-15T12:33:53.358Z,2295.00
2023-03-15T12:34:53.475Z,2292.00
2023-03-15T12:35:53.403Z,2337.00
2023-03-15T12:36:53.365Z,2419.00
2023-03-15T12:37:53.392Z,2406.00
2023-03-15T12:38:53.357Z,2454.00
2023-03-15T12:39:53.347Z,2483.00
2023-03-15T12:40:53.374Z,2500.00
2023-03-15T12:41:53.386Z,2505.00
2023-03-15T12:42:53.390Z,2531.00
2023-03-15T12:43:53.422Z,2527.00
2023-03-15T12:44:53.421Z,2541.00
2023-03-15T12:45:53.487Z,2556.00
2023-03-15T12:46:53.535Z,2557.00
2023-03-15T12:47:53.520Z,2569.00
2023-03-15T12:48:53.610Z,2586.00
2023-03-15T12:49:53.596Z,2577.00
2023-03-15T12:50:53.613Z,2578.00